sensor_id;sensor_type;location;lat;lon;timestamp;pressure;altitude;pressure_sealevel;temperature
64394;BMP280;50712;49.506;10.400;2023-07-22T00:00:19;97977.03;;;19.56
64394;BMP280;50712;49.506;10.400;2023-07-22T00:00:52;97972.75;;;19.55
64394;BMP280;50712;49.506;10.400;2023-07-22T00:01:23;97977.56;;;19.54
64394;BMP280;50712;49.506;10.400;2023-07-22T00:01:53;97972.75;;;19.55
64394;BMP280;50712;49.506;10.400;2023-07-22T00:02:23;97973.28;;;19.53
64394;BMP280;50712;49.506;10.400;2023-07-22T00:02:54;97978.78;;;19.53
64394;BMP280;50712;49.506;10.400;2023-07-22T00:03:24;97969.75;;;19.53
64394;BMP280;50712;49.506;10.400;2023-07-22T00:03:55;97971.25;;;19.54
64394;BMP280;50712;49.506;10.400;2023-07-22T00:04:25;97969.00;;;19.52
64394;BMP280;50712;49.506;10.400;2023-07-22T00:04:57;97973.78;;;19.52
64394;BMP280;50712;49.506;10.400;2023-07-22T00:05:27;97972.28;;;19.51
64394;BMP280;50712;49.506;10.400;2023-07-22T00:06:04;97968.78;;;19.50
64394;BMP280;50712;49.506;10.400;2023-07-22T00:06:35;97973.53;;;19.50
64394;BMP280;50712;49.506;10.400;2023-07-22T00:07:06;97968.50;;;19.48
64394;BMP280;50712;49.506;10.400;2023-07-22T00:07:36;97967.78;;;19.48
64394;BMP280;50712;49.506;10.400;2023-07-22T00:08:06;97972.56;;;19.47
64394;BMP280;50712;49.506;10.400;2023-07-22T00:08:37;97966.28;;;19.47
64394;BMP280;50712;49.506;10.400;2023-07-22T00:09:08;97975.81;;;19.46
64394;BMP280;50712;49.506;10.400;2023-07-22T00:09:40;97969.53;;;19.45
64394;BMP280;50712;49.506;10.400;2023-07-22T00:10:11;97966.03;;;19.45
64394;BMP280;50712;49.506;10.400;2023-07-22T00:10:42;97974.84;;;19.43
64394;BMP280;50712;49.506;10.400;2023-07-22T00:11:13;97974.84;;;19.43
64394;BMP280;50712;49.506;10.400;2023-07-22T00:11:43;97970.53;;;19.42
64394;BMP280;50712;49.506;10.400;2023-07-22T00:12:13;97976.06;;;19.42
64394;BMP280;50712;49.506;10.400;2023-07-22T00:12:44;97975.81;;;19.40
64394;BMP280;50712;49.506;10.400;2023-07-22T00:13:14;97974.59;;;19.41
64394;BMP280;50712;49.506;10.400;2023-07-22T00:13:44;97969.53;;;19.40
64394;BMP280;50712;49.506;10.400;2023-07-22T00:14:15;97974.34;;;19.39
64394;BMP280;50712;49.506;10.400;2023-07-22T00:14:45;97977.84;;;19.40
64394;BMP280;50712;49.506;10.400;2023-07-22T00:15:15;97972.84;;;19.38
64394;BMP280;50712;49.506;10.400;2023-07-22T00:15:46;97970.81;;;19.39
64394;BMP280;50712;49.506;10.400;2023-07-22T00:16:16;97971.31;;;19.37
64394;BMP280;50712;49.506;10.400;2023-07-22T00:16:46;97975.34;;;19.36
64394;BMP280;50712;49.506;10.400;2023-07-22T00:17:17;97975.34;;;19.36
64394;BMP280;50712;49.506;10.400;2023-07-22T00:17:48;97975.88;;;19.35
64394;BMP280;50712;49.506;10.400;2023-07-22T00:18:19;97976.59;;;19.35
64394;BMP280;50712;49.506;10.400;2023-07-22T00:18:49;97973.13;;;19.35
64394;BMP280;50712;49.506;10.400;2023-07-22T00:19:20;97975.13;;;19.34
64394;BMP280;50712;49.506;10.400;2023-07-22T00:19:50;97973.13;;;19.35
64394;BMP280;50712;49.506;10.400;2023-07-22T00:20:21;97972.34;;;19.34
64394;BMP280;50712;49.506;10.400;2023-07-22T00:20:52;97968.84;;;19.34
64394;BMP280;50712;49.506;10.400;2023-07-22T00:21:23;97977.88;;;19.34
64394;BMP280;50712;49.506;10.400;2023-07-22T00:21:53;97970.06;;;19.33
64394;BMP280;50712;49.506;10.400;2023-07-22T00:22:24;97972.06;;;19.32
64394;BMP280;50712;49.506;10.400;2023-07-22T00:22:56;97977.59;;;19.32
64394;BMP280;50712;49.506;10.400;2023-07-22T00:23:27;97973.34;;;19.31
64394;BMP280;50712;49.506;10.400;2023-07-22T00:23:58;97973.34;;;19.31
64394;BMP280;50712;49.506;10.400;2023-07-22T00:24:29;97973.34;;;19.31
64394;BMP280;50712;49.506;10.400;2023-07-22T00:24:59;97969.09;;;19.30
64394;BMP280;50712;49.506;10.400;2023-07-22T00:25:33;97974.63;;;19.30
64394;BMP280;50712;49.506;10.400;2023-07-22T00:26:03;97971.63;;;19.28
64394;BMP280;50712;49.506;10.400;2023-07-22T00:26:34;97973.88;;;19.30
64394;BMP280;50712;49.506;10.400;2023-07-22T00:27:04;97964.81;;;19.29
64394;BMP280;50712;49.506;10.400;2023-07-22T00:27:37;97971.63;;;19.28
64394;BMP280;50712;49.506;10.400;2023-07-22T00:28:08;97970.84;;;19.28
64394;BMP280;50712;49.506;10.400;2023-07-22T00:28:38;97972.09;;;19.27
64394;BMP280;50712;49.506;10.400;2023-07-22T00:29:09;97976.88;;;19.26
64394;BMP280;50712;49.506;10.400;2023-07-22T00:29:39;97970.63;;;19.26
64394;BMP280;50712;49.506;10.400;2023-07-22T00:30:09;97975.41;;;19.25
64394;BMP280;50712;49.506;10.400;2023-07-22T00:30:41;97969.13;;;19.25
64394;BMP280;50712;49.506;10.400;2023-07-22T00:31:12;97971.13;;;19.24
64394;BMP280;50712;49.506;10.400;2023-07-22T00:31:43;97970.34;;;19.24
64394;BMP280;50712;49.506;10.400;2023-07-22T00:32:13;97976.66;;;19.24
64394;BMP280;50712;49.506;10.400;2023-07-22T00:32:44;97973.88;;;19.24
64394;BMP280;50712;49.506;10.400;2023-07-22T00:33:14;97964.84;;;19.24
64394;BMP280;50712;49.506;10.400;2023-07-22T00:33:45;97964.84;;;19.24
64394;BMP280;50712;49.506;10.400;2023-07-22T00:34:15;97969.59;;;19.23
64394;BMP280;50712;49.506;10.400;2023-07-22T00:34:46;97972.38;;;19.23
64394;BMP280;50712;49.506;10.400;2023-07-22T00:35:16;97969.59;;;19.23
64394;BMP280;50712;49.506;10.400;2023-07-22T00:35:47;97963.31;;;19.23
64394;BMP280;50712;49.506;10.400;2023-07-22T00:36:20;97961.09;;;19.21
64394;BMP280;50712;49.506;10.400;2023-07-22T00:36:50;97963.09;;;19.21
64394;BMP280;50712;49.506;10.400;2023-07-22T00:37:21;97963.59;;;19.19
64394;BMP280;50712;49.506;10.400;2023-07-22T00:37:51;97960.09;;;19.19
64394;BMP280;50712;49.506;10.400;2023-07-22T00:38:21;97967.63;;;19.18
64394;BMP280;50712;49.506;10.400;2023-07-22T00:38:52;97962.09;;;19.18
64394;BMP280;50712;49.506;10.400;2023-07-22T00:39:25;97964.84;;;19.18
64394;BMP280;50712;49.506;10.400;2023-07-22T00:39:55;97967.63;;;19.18
64394;BMP280;50712;49.506;10.400;2023-07-22T00:40:26;97961.34;;;19.18
64394;BMP280;50712;49.506;10.400;2023-07-22T00:40:57;97969.63;;;19.18
64394;BMP280;50712;49.506;10.400;2023-07-22T00:41:27;97963.38;;;19.17
64394;BMP280;50712;49.506;10.400;2023-07-22T00:41:59;97965.88;;;19.15
64394;BMP280;50712;49.506;10.400;2023-07-22T00:42:30;97966.63;;;19.16
64394;BMP280;50712;49.506;10.400;2023-07-22T00:43:00;97959.59;;;19.15
64394;BMP280;50712;49.506;10.400;2023-07-22T00:43:30;97958.06;;;19.14
64394;BMP280;50712;49.506;10.400;2023-07-22T00:44:01;97958.63;;;19.12
64394;BMP280;50712;49.506;10.400;2023-07-22T00:44:32;97960.63;;;19.12
64394;BMP280;50712;49.506;10.400;2023-07-22T00:45:02;97966.13;;;19.12
64394;BMP280;50712;49.506;10.400;2023-07-22T00:45:33;97962.63;;;19.11
64394;BMP280;50712;49.506;10.400;2023-07-22T00:46:04;97965.13;;;19.09
64394;BMP280;50712;49.506;10.400;2023-07-22T00:46:34;97954.59;;;19.08
64394;BMP280;50712;49.506;10.400;2023-07-22T00:47:05;97962.13;;;19.07
64394;BMP280;50712;49.506;10.400;2023-07-22T00:47:36;97964.16;;;19.07
64394;BMP280;50712;49.506;10.400;2023-07-22T00:48:07;97959.88;;;19.06
64394;BMP280;50712;49.506;10.400;2023-07-22T00:48:38;97960.63;;;19.06
64394;BMP280;50712;49.506;10.400;2023-07-22T00:49:09;97964.63;;;19.05
64394;BMP280;50712;49.506;10.400;2023-07-22T00:49:40;97960.34;;;19.04
64394;BMP280;50712;49.506;10.400;2023-07-22T00:50:10;97968.63;;;19.04
64394;BMP280;50712;49.506;10.400;2023-07-22T00:50:41;97968.63;;;19.04
64394;BMP280;50712;49.506;10.400;2023-07-22T00:51:11;97960.91;;;19.03
64394;BMP280;50712;49.506;10.400;2023-07-22T00:51:42;97966.41;;;19.03
64394;BMP280;50712;49.506;10.400;2023-07-22T00:52:12;97966.41;;;19.03
64394;BMP280;50712;49.506;10.400;2023-07-22T00:52:42;97973.94;;;19.02
64394;BMP280;50712;49.506;10.400;2023-07-22T00:53:13;97964.91;;;19.02
64394;BMP280;50712;49.506;10.400;2023-07-22T00:53:44;97966.13;;;19.01
64394;BMP280;50712;49.506;10.400;2023-07-22T00:54:14;97967.66;;;19.02
64394;BMP280;50712;49.506;10.400;2023-07-22T00:54:45;97969.66;;;19.01
64394;BMP280;50712;49.506;10.400;2023-07-22T00:55:16;97968.91;;;19.01
64394;BMP280;50712;49.506;10.400;2023-07-22T00:55:47;97970.94;;;19.00
64394;BMP280;50712;49.506;10.400;2023-07-22T00:56:17;97968.16;;;19.00
64394;BMP280;50712;49.506;10.400;2023-07-22T00:56:48;97968.16;;;19.00
64394;BMP280;50712;49.506;10.400;2023-07-22T00:57:18;97971.66;;;19.01
64394;BMP280;50712;49.506;10.400;2023-07-22T00:57:49;97972.19;;;18.99
64394;BMP280;50712;49.506;10.400;2023-07-22T00:58:20;97968.69;;;18.99
64394;BMP280;50712;49.506;10.400;2023-07-22T00:58:51;97968.16;;;19.00
64394;BMP280;50712;49.506;10.400;2023-07-22T00:59:22;97969.44;;;18.99
64394;BMP280;50712;49.506;10.400;2023-07-22T00:59:54;97969.44;;;18.99
64394;BMP280;50712;49.506;10.400;2023-07-22T01:00:24;97967.91;;;18.98
64394;BMP280;50712;49.506;10.400;2023-07-22T01:00:55;97967.16;;;18.98
64394;BMP280;50712;49.506;10.400;2023-07-22T01:01:25;97967.16;;;18.98
64394;BMP280;50712;49.506;10.400;2023-07-22T01:01:55;97962.16;;;18.96
64394;BMP280;50712;49.506;10.400;2023-07-22T01:02:26;97968.44;;;18.97
64394;BMP280;50712;49.506;10.400;2023-07-22T01:02:56;97968.44;;;18.97
64394;BMP280;50712;49.506;10.400;2023-07-22T01:03:26;97972.44;;;18.96
64394;BMP280;50712;49.506;10.400;2023-07-22T01:03:58;97966.91;;;18.96
64394;BMP280;50712;49.506;10.400;2023-07-22T01:04:28;97966.91;;;18.96
64394;BMP280;50712;49.506;10.400;2023-07-22T01:04:59;97966.19;;;18.95
64394;BMP280;50712;49.506;10.400;2023-07-22T01:05:29;97963.41;;;18.95
64394;BMP280;50712;49.506;10.400;2023-07-22T01:06:01;97960.66;;;18.95
64394;BMP280;50712;49.506;10.400;2023-07-22T01:06:33;97966.69;;;18.94
64394;BMP280;50712;49.506;10.400;2023-07-22T01:07:05;97964.66;;;18.94
64394;BMP280;50712;49.506;10.400;2023-07-22T01:07:36;97957.66;;;18.93
64394;BMP280;50712;49.506;10.400;2023-07-22T01:08:08;97961.16;;;18.94
64394;BMP280;50712;49.506;10.400;2023-07-22T01:08:39;97963.94;;;18.94
64394;BMP280;50712;49.506;10.400;2023-07-22T01:09:09;97955.66;;;18.94
64394;BMP280;50712;49.506;10.400;2023-07-22T01:09:41;97961.91;;;18.94
64394;BMP280;50712;49.506;10.400;2023-07-22T01:10:13;97954.38;;;18.95
64394;BMP280;50712;49.506;10.400;2023-07-22T01:10:44;97958.41;;;18.94
64394;BMP280;50712;49.506;10.400;2023-07-22T01:11:15;97960.41;;;18.93
64394;BMP280;50712;49.506;10.400;2023-07-22T01:11:45;97956.38;;;18.94
64394;BMP280;50712;49.506;10.400;2023-07-22T01:12:16;97952.88;;;18.94
64394;BMP280;50712;49.506;10.400;2023-07-22T01:12:46;97954.13;;;18.93
64394;BMP280;50712;49.506;10.400;2023-07-22T01:13:16;97959.66;;;18.93
64394;BMP280;50712;49.506;10.400;2023-07-22T01:13:47;97954.13;;;18.93
64394;BMP280;50712;49.506;10.400;2023-07-22T01:14:17;97954.59;;;18.91
64394;BMP280;50712;49.506;10.400;2023-07-22T01:14:47;97948.38;;;18.91
64394;BMP280;50712;49.506;10.400;2023-07-22T01:15:18;97951.16;;;18.91
64394;BMP280;50712;49.506;10.400;2023-07-22T01:15:48;97953.91;;;18.91
64394;BMP280;50712;49.506;10.400;2023-07-22T01:16:19;97955.91;;;18.90
64394;BMP280;50712;49.506;10.400;2023-07-22T01:16:49;97946.88;;;18.90
64394;BMP280;50712;49.506;10.400;2023-07-22T01:17:19;97948.09;;;18.89
64394;BMP280;50712;49.506;10.400;2023-07-22T01:17:50;97949.63;;;18.90
64394;BMP280;50712;49.506;10.400;2023-07-22T01:18:21;97946.09;;;18.89
64394;BMP280;50712;49.506;10.400;2023-07-22T01:18:52;97955.16;;;18.90
64394;BMP280;50712;49.506;10.400;2023-07-22T01:19:23;97949.63;;;18.90
64394;BMP280;50712;49.506;10.400;2023-07-22T01:19:54;97946.09;;;18.89
64394;BMP280;50712;49.506;10.400;2023-07-22T01:20:25;97949.63;;;18.90
64394;BMP280;50712;49.506;10.400;2023-07-22T01:20:56;97947.63;;;18.90
64394;BMP280;50712;49.506;10.400;2023-07-22T01:21:26;97951.63;;;18.89
64394;BMP280;50712;49.506;10.400;2023-07-22T01:21:58;97942.59;;;18.89
64394;BMP280;50712;49.506;10.400;2023-07-22T01:22:31;97946.88;;;18.90
64394;BMP280;50712;49.506;10.400;2023-07-22T01:23:03;97946.63;;;18.88
64394;BMP280;50712;49.506;10.400;2023-07-22T01:23:34;97952.13;;;18.88
64394;BMP280;50712;49.506;10.400;2023-07-22T01:24:06;97944.59;;;18.88
64394;BMP280;50712;49.506;10.400;2023-07-22T01:24:37;97948.09;;;18.89
64394;BMP280;50712;49.506;10.400;2023-07-22T01:25:09;97951.63;;;18.89
64394;BMP280;50712;49.506;10.400;2023-07-22T01:25:39;97952.88;;;18.88
64394;BMP280;50712;49.506;10.400;2023-07-22T01:26:11;97953.63;;;18.89
64394;BMP280;50712;49.506;10.400;2023-07-22T01:26:41;97952.88;;;18.88
64394;BMP280;50712;49.506;10.400;2023-07-22T01:27:11;97962.41;;;18.87
64394;BMP280;50712;49.506;10.400;2023-07-22T01:27:43;97954.91;;;18.88
64394;BMP280;50712;49.506;10.400;2023-07-22T01:28:14;97962.41;;;18.87
64394;BMP280;50712;49.506;10.400;2023-07-22T01:28:44;97958.91;;;18.87
64394;BMP280;50712;49.506;10.400;2023-07-22T01:29:14;97955.41;;;18.86
64394;BMP280;50712;49.506;10.400;2023-07-22T01:29:45;97959.41;;;18.85
64394;BMP280;50712;49.506;10.400;2023-07-22T01:30:16;97955.16;;;18.84
64394;BMP280;50712;49.506;10.400;2023-07-22T01:30:46;97952.41;;;18.84
64394;BMP280;50712;49.506;10.400;2023-07-22T01:31:16;97954.41;;;18.84
64394;BMP280;50712;49.506;10.400;2023-07-22T01:31:48;97954.41;;;18.84
64394;BMP280;50712;49.506;10.400;2023-07-22T01:32:20;97959.16;;;18.83
64394;BMP280;50712;49.506;10.400;2023-07-22T01:32:51;97954.16;;;18.82
64394;BMP280;50712;49.506;10.400;2023-07-22T01:33:21;97952.88;;;18.83
64394;BMP280;50712;49.506;10.400;2023-07-22T01:33:51;97960.41;;;18.82
64394;BMP280;50712;49.506;10.400;2023-07-22T01:34:22;97962.69;;;18.84
64394;BMP280;50712;49.506;10.400;2023-07-22T01:34:54;97954.16;;;18.82
64394;BMP280;50712;49.506;10.400;2023-07-22T01:35:24;97957.63;;;18.82
64394;BMP280;50712;49.506;10.400;2023-07-22T01:35:56;97954.16;;;18.82
64394;BMP280;50712;49.506;10.400;2023-07-22T01:36:27;97951.38;;;18.82
64394;BMP280;50712;49.506;10.400;2023-07-22T01:36:57;97958.94;;;18.81
64394;BMP280;50712;49.506;10.400;2023-07-22T01:37:28;97964.47;;;18.81
64394;BMP280;50712;49.506;10.400;2023-07-22T01:37:58;97958.19;;;18.81
64394;BMP280;50712;49.506;10.400;2023-07-22T01:38:29;97956.19;;;18.81
64394;BMP280;50712;49.506;10.400;2023-07-22T01:39:01;97954.66;;;18.80
64394;BMP280;50712;49.506;10.400;2023-07-22T01:39:31;97958.94;;;18.81
64394;BMP280;50712;49.506;10.400;2023-07-22T01:40:02;97963.69;;;18.81
64394;BMP280;50712;49.506;10.400;2023-07-22T01:40:42;97957.41;;;18.80
64394;BMP280;50712;49.506;10.400;2023-07-22T01:41:13;97973.22;;;18.80
64394;BMP280;50712;49.506;10.400;2023-07-22T01:41:43;97966.19;;;18.79
64394;BMP280;50712;49.506;10.400;2023-07-22T01:42:14;97964.94;;;18.80
64394;BMP280;50712;49.506;10.400;2023-07-22T01:42:44;97964.19;;;18.79
64394;BMP280;50712;49.506;10.400;2023-07-22T01:43:15;97966.94;;;18.79
64394;BMP280;50712;49.506;10.400;2023-07-22T01:43:45;97960.66;;;18.79
64394;BMP280;50712;49.506;10.400;2023-07-22T01:44:15;97961.41;;;18.79
64394;BMP280;50712;49.506;10.400;2023-07-22T01:44:46;97958.66;;;18.79
64394;BMP280;50712;49.506;10.400;2023-07-22T01:45:16;97957.41;;;18.80
64394;BMP280;50712;49.506;10.400;2023-07-22T01:45:47;97951.91;;;18.80
64394;BMP280;50712;49.506;10.400;2023-07-22T01:46:17;97954.66;;;18.80
64394;BMP280;50712;49.506;10.400;2023-07-22T01:46:48;97951.91;;;18.80
64394;BMP280;50712;49.506;10.400;2023-07-22T01:47:18;97954.66;;;18.80
64394;BMP280;50712;49.506;10.400;2023-07-22T01:47:48;97955.41;;;18.81
64394;BMP280;50712;49.506;10.400;2023-07-22T01:48:19;97950.66;;;18.81
64394;BMP280;50712;49.506;10.400;2023-07-22T01:48:49;97946.38;;;18.80
64394;BMP280;50712;49.506;10.400;2023-07-22T01:49:19;97949.91;;;18.81
64394;BMP280;50712;49.506;10.400;2023-07-22T01:49:50;97946.38;;;18.80
64394;BMP280;50712;49.506;10.400;2023-07-22T01:50:22;97950.38;;;18.79
64394;BMP280;50712;49.506;10.400;2023-07-22T01:50:52;97954.41;;;18.78
64394;BMP280;50712;49.506;10.400;2023-07-22T01:51:23;97946.84;;;18.79
64394;BMP280;50712;49.506;10.400;2023-07-22T01:51:54;97946.63;;;18.77
64394;BMP280;50712;49.506;10.400;2023-07-22T01:52:24;97950.16;;;18.77
64394;BMP280;50712;49.506;10.400;2023-07-22T01:52:55;97957.69;;;18.77
64394;BMP280;50712;49.506;10.400;2023-07-22T01:53:25;97955.44;;;18.75
64394;BMP280;50712;49.506;10.400;2023-07-22T01:53:55;97952.66;;;18.75
64394;BMP280;50712;49.506;10.400;2023-07-22T01:54:27;97949.91;;;18.75
64394;BMP280;50712;49.506;10.400;2023-07-22T01:54:57;97947.16;;;18.75
64394;BMP280;50712;49.506;10.400;2023-07-22T01:55:27;97938.09;;;18.75
64394;BMP280;50712;49.506;10.400;2023-07-22T01:55:58;97951.16;;;18.74
64394;BMP280;50712;49.506;10.400;2023-07-22T01:56:28;97958.91;;;18.76
64394;BMP280;50712;49.506;10.400;2023-07-22T01:56:59;97946.63;;;18.77
64394;BMP280;50712;49.506;10.400;2023-07-22T01:57:29;97947.88;;;18.76
64394;BMP280;50712;49.506;10.400;2023-07-22T01:58:01;97958.19;;;18.75
64394;BMP280;50712;49.506;10.400;2023-07-22T01:58:32;97950.63;;;18.76
64394;BMP280;50712;49.506;10.400;2023-07-22T01:59:03;97952.16;;;18.77
64394;BMP280;50712;49.506;10.400;2023-07-22T01:59:33;97952.16;;;18.77
64394;BMP280;50712;49.506;10.400;2023-07-22T02:00:04;97947.88;;;18.76
64394;BMP280;50712;49.506;10.400;2023-07-22T02:00:42;97953.66;;;18.78
64394;BMP280;50712;49.506;10.400;2023-07-22T02:01:13;97949.41;;;18.77
64394;BMP280;50712;49.506;10.400;2023-07-22T02:01:45;97949.63;;;18.79
64394;BMP280;50712;49.506;10.400;2023-07-22T02:02:16;97953.66;;;18.78
64394;BMP280;50712;49.506;10.400;2023-07-22T02:02:46;97950.88;;;18.78
64394;BMP280;50712;49.506;10.400;2023-07-22T02:03:16;97964.69;;;18.78
64394;BMP280;50712;49.506;10.400;2023-07-22T02:03:47;97954.41;;;18.78
64394;BMP280;50712;49.506;10.400;2023-07-22T02:04:17;97961.94;;;18.78
64394;BMP280;50712;49.506;10.400;2023-07-22T02:04:48;97959.16;;;18.78
64394;BMP280;50712;49.506;10.400;2023-07-22T02:05:18;97951.66;;;18.78
64394;BMP280;50712;49.506;10.400;2023-07-22T02:05:48;97951.66;;;18.78
64394;BMP280;50712;49.506;10.400;2023-07-22T02:06:19;97960.66;;;18.79
64394;BMP280;50712;49.506;10.400;2023-07-22T02:06:49;97966.94;;;18.79
64394;BMP280;50712;49.506;10.400;2023-07-22T02:07:19;97968.47;;;18.80
64394;BMP280;50712;49.506;10.400;2023-07-22T02:07:51;97962.19;;;18.80
64394;BMP280;50712;49.506;10.400;2023-07-22T02:08:21;97965.69;;;18.80
64394;BMP280;50712;49.506;10.400;2023-07-22T02:08:51;97960.94;;;18.81
64394;BMP280;50712;49.506;10.400;2023-07-22T02:09:22;97962.94;;;18.80
64394;BMP280;50712;49.506;10.400;2023-07-22T02:09:52;97966.47;;;18.81
64394;BMP280;50712;49.506;10.400;2023-07-22T02:10:23;97969.22;;;18.81
64394;BMP280;50712;49.506;10.400;2023-07-22T02:10:54;97956.19;;;18.81
64394;BMP280;50712;49.506;10.400;2023-07-22T02:11:24;97967.22;;;18.81
64394;BMP280;50712;49.506;10.400;2023-07-22T02:11:54;97967.22;;;18.81
64394;BMP280;50712;49.506;10.400;2023-07-22T02:12:25;97969.97;;;18.81
64394;BMP280;50712;49.506;10.400;2023-07-22T02:12:55;97966.47;;;18.81
64394;BMP280;50712;49.506;10.400;2023-07-22T02:13:26;97971.97;;;18.81
64394;BMP280;50712;49.506;10.400;2023-07-22T02:13:56;97974.75;;;18.81
64394;BMP280;50712;49.506;10.400;2023-07-22T02:14:26;97974.75;;;18.81
64394;BMP280;50712;49.506;10.400;2023-07-22T02:14:57;97973.97;;;18.80
64394;BMP280;50712;49.506;10.400;2023-07-22T02:15:27;97975.97;;;18.80
64394;BMP280;50712;49.506;10.400;2023-07-22T02:15:58;97978.75;;;18.80
64394;BMP280;50712;49.506;10.400;2023-07-22T02:16:29;97975.22;;;18.79
64394;BMP280;50712;49.506;10.400;2023-07-22T02:16:59;97974.47;;;18.79
64394;BMP280;50712;49.506;10.400;2023-07-22T02:17:30;97976.50;;;18.78
64394;BMP280;50712;49.506;10.400;2023-07-22T02:18:00;97975.72;;;18.78
64394;BMP280;50712;49.506;10.400;2023-07-22T02:18:31;97972.72;;;18.76
64394;BMP280;50712;49.506;10.400;2023-07-22T02:19:02;97972.72;;;18.76
64394;BMP280;50712;49.506;10.400;2023-07-22T02:19:33;97968.47;;;18.75
64394;BMP280;50712;49.506;10.400;2023-07-22T02:20:03;97970.47;;;18.74
64394;BMP280;50712;49.506;10.400;2023-07-22T02:20:34;97963.44;;;18.73
64394;BMP280;50712;49.506;10.400;2023-07-22T02:21:05;97959.94;;;18.73
64394;BMP280;50712;49.506;10.400;2023-07-22T02:21:35;97970.22;;;18.72
64394;BMP280;50712;49.506;10.400;2023-07-22T02:22:05;97977.75;;;18.72
64394;BMP280;50712;49.506;10.400;2023-07-22T02:22:36;97961.69;;;18.70
64394;BMP280;50712;49.506;10.400;2023-07-22T02:23:06;97971.19;;;18.69
64394;BMP280;50712;49.506;10.400;2023-07-22T02:23:37;97973.22;;;18.68
64394;BMP280;50712;49.506;10.400;2023-07-22T02:24:07;97970.47;;;18.68
64394;BMP280;50712;49.506;10.400;2023-07-22T02:24:38;97973.75;;;18.67
64394;BMP280;50712;49.506;10.400;2023-07-22T02:25:09;97970.97;;;18.67
64394;BMP280;50712;49.506;10.400;2023-07-22T02:25:40;97970.97;;;18.67
64394;BMP280;50712;49.506;10.400;2023-07-22T02:26:10;97984.28;;;18.68
64394;BMP280;50712;49.506;10.400;2023-07-22T02:26:41;97972.50;;;18.68
64394;BMP280;50712;49.506;10.400;2023-07-22T02:27:12;97964.94;;;18.68
64394;BMP280;50712;49.506;10.400;2023-07-22T02:27:42;97973.97;;;18.69
64394;BMP280;50712;49.506;10.400;2023-07-22T02:28:13;97965.69;;;18.69
64394;BMP280;50712;49.506;10.400;2023-07-22T02:28:44;97977.47;;;18.69
64394;BMP280;50712;49.506;10.400;2023-07-22T02:29:14;97969.19;;;18.69
64394;BMP280;50712;49.506;10.400;2023-07-22T02:29:45;97975.47;;;18.70
64394;BMP280;50712;49.506;10.400;2023-07-22T02:30:15;97974.25;;;18.71
64394;BMP280;50712;49.506;10.400;2023-07-22T02:30:48;97976.25;;;18.71
64394;BMP280;50712;49.506;10.400;2023-07-22T02:31:19;97971.47;;;18.71
64394;BMP280;50712;49.506;10.400;2023-07-22T02:31:49;97973.72;;;18.73
64394;BMP280;50712;49.506;10.400;2023-07-22T02:32:20;97975.75;;;18.72
64394;BMP280;50712;49.506;10.400;2023-07-22T02:32:51;97976.50;;;18.73
64394;BMP280;50712;49.506;10.400;2023-07-22T02:33:22;97974.47;;;18.73
64394;BMP280;50712;49.506;10.400;2023-07-22T02:33:52;97978.00;;;18.74
64394;BMP280;50712;49.506;10.400;2023-07-22T02:34:23;97975.22;;;18.74
64394;BMP280;50712;49.506;10.400;2023-07-22T02:34:53;97974.47;;;18.73
64394;BMP280;50712;49.506;10.400;2023-07-22T02:35:24;97970.47;;;18.74
64394;BMP280;50712;49.506;10.400;2023-07-22T02:35:54;97975.22;;;18.74
64394;BMP280;50712;49.506;10.400;2023-07-22T02:36:25;97980.28;;;18.75
64394;BMP280;50712;49.506;10.400;2023-07-22T02:36:55;97973.22;;;18.74
64394;BMP280;50712;49.506;10.400;2023-07-22T02:37:25;97982.28;;;18.75
64394;BMP280;50712;49.506;10.400;2023-07-22T02:37:56;97977.00;;;18.77
64394;BMP280;50712;49.506;10.400;2023-07-22T02:38:26;97974.75;;;18.75
64394;BMP280;50712;49.506;10.400;2023-07-22T02:38:57;97981.75;;;18.76
64394;BMP280;50712;49.506;10.400;2023-07-22T02:39:27;97977.00;;;18.77
64394;BMP280;50712;49.506;10.400;2023-07-22T02:39:57;97980.53;;;18.77
64394;BMP280;50712;49.506;10.400;2023-07-22T02:40:28;97975.72;;;18.78
64394;BMP280;50712;49.506;10.400;2023-07-22T02:41:01;97972.97;;;18.78
64394;BMP280;50712;49.506;10.400;2023-07-22T02:41:33;97973.72;;;18.78
64394;BMP280;50712;49.506;10.400;2023-07-22T02:42:03;97979.25;;;18.78
64394;BMP280;50712;49.506;10.400;2023-07-22T02:42:34;97972.97;;;18.78
64394;BMP280;50712;49.506;10.400;2023-07-22T02:43:07;97975.22;;;18.79
64394;BMP280;50712;49.506;10.400;2023-07-22T02:43:37;97977.22;;;18.79
64394;BMP280;50712;49.506;10.400;2023-07-22T02:44:08;97975.72;;;18.78
64394;BMP280;50712;49.506;10.400;2023-07-22T02:44:39;97968.22;;;18.78
64394;BMP280;50712;49.506;10.400;2023-07-22T02:45:09;97973.72;;;18.78
64394;BMP280;50712;49.506;10.400;2023-07-22T02:45:40;97970.97;;;18.78
64394;BMP280;50712;49.506;10.400;2023-07-22T02:46:10;97970.97;;;18.78
64394;BMP280;50712;49.506;10.400;2023-07-22T02:46:41;97971.69;;;18.79
64394;BMP280;50712;49.506;10.400;2023-07-22T02:47:11;97979.97;;;18.79
64394;BMP280;50712;49.506;10.400;2023-07-22T02:47:42;97977.22;;;18.79
64394;BMP280;50712;49.506;10.400;2023-07-22T02:48:12;97971.69;;;18.79
64394;BMP280;50712;49.506;10.400;2023-07-22T02:48:43;97966.19;;;18.79
64394;BMP280;50712;49.506;10.400;2023-07-22T02:49:13;97966.94;;;18.79
64394;BMP280;50712;49.506;10.400;2023-07-22T02:49:43;97972.47;;;18.79
64394;BMP280;50712;49.506;10.400;2023-07-22T02:50:15;97968.94;;;18.79
64394;BMP280;50712;49.506;10.400;2023-07-22T02:50:45;97974.47;;;18.79
64394;BMP280;50712;49.506;10.400;2023-07-22T02:51:15;97974.47;;;18.79
64394;BMP280;50712;49.506;10.400;2023-07-22T02:51:46;97977.97;;;18.79
64394;BMP280;50712;49.506;10.400;2023-07-22T02:52:16;97971.69;;;18.79
64394;BMP280;50712;49.506;10.400;2023-07-22T02:52:46;97964.94;;;18.80
64394;BMP280;50712;49.506;10.400;2023-07-22T02:53:17;97970.47;;;18.80
64394;BMP280;50712;49.506;10.400;2023-07-22T02:53:47;97976.75;;;18.80
64394;BMP280;50712;49.506;10.400;2023-07-22T02:54:18;97971.22;;;18.80
64394;BMP280;50712;49.506;10.400;2023-07-22T02:55:04;97980.25;;;18.81